Time;durP1;ratioP1;P1;durP2;ratioP2;P2;SDS_P1;SDS_P2;PMS_P1;PMS_P2;Temp;Humidity;BMP_temperature;BMP_pressure;BME280_temperature;BME280_humidity;BME280_pressure;Samples;Min_cycle;Max_cycle;Signal;HPM_P1;HPM_P2
2021/06/28 00:00:29;;;;;;;6.30;5.03;;;22.40;98.00;;;;;;5097314;28;20441;-46
2021/06/28 00:02:56;;;;;;;6.20;5.60;;;22.40;98.30;;;;;;5097401;28;20425;-47
2021/06/28 00:05:24;;;;;;;6.40;5.13;;;22.40;99.10;;;;;;5096341;28;20515;-46
2021/06/28 00:07:52;;;;;;;6.93;5.10;;;22.30;99.70;;;;;;5095367;28;20488;-46
2021/06/28 00:10:24;;;;;;;6.10;5.20;;;22.30;99.90;;;;;;5095583;28;20514;-46
2021/06/28 00:12:53;;;;;;;5.73;5.13;;;22.20;99.90;;;;;;5095470;28;20470;-47
2021/06/28 00:15:22;;;;;;;5.90;5.30;;;22.10;99.90;;;;;;5095680;28;20969;-47
2021/06/28 00:17:49;;;;;;;7.30;6.47;;;22.10;99.90;;;;;;5095514;28;20429;-48
2021/06/28 00:20:18;;;;;;;7.17;6.23;;;22.00;99.90;;;;;;5093813;28;20506;-48
2021/06/28 00:22:46;;;;;;;6.20;5.50;;;22.00;99.90;;;;;;5095219;28;20801;-46
2021/06/28 00:25:16;;;;;;;12.30;5.87;;;22.00;99.90;;;;;;5104619;28;20840;-50
2021/06/28 00:27:44;;;;;;;6.37;5.37;;;21.90;99.90;;;;;;5103850;28;20773;-44
2021/06/28 00:30:14;;;;;;;7.63;6.30;;;21.90;99.90;;;;;;5103458;28;20465;-44
2021/06/28 00:32:41;;;;;;;6.30;5.63;;;21.90;99.90;;;;;;5105265;28;20454;-46
2021/06/28 00:35:10;;;;;;;6.37;5.50;;;21.80;99.90;;;;;;5106018;28;20473;-45
2021/06/28 00:37:39;;;;;;;8.17;5.70;;;21.80;99.90;;;;;;5101450;28;20437;-45
2021/06/28 00:40:08;;;;;;;6.87;5.60;;;21.80;99.90;;;;;;5103408;28;20524;-47
2021/06/28 00:42:37;;;;;;;6.97;5.83;;;21.70;99.90;;;;;;5094472;28;20957;-47
2021/06/28 00:45:19;;;;;;;6.60;5.30;;;21.70;99.90;;;;;;5090221;28;20437;-46
2021/06/28 00:47:49;;;;;;;7.20;5.50;;;21.70;99.90;;;;;;5091042;28;20445;-48
2021/06/28 00:50:17;;;;;;;6.30;5.20;;;21.70;99.90;;;;;;5102682;28;20433;-47
2021/06/28 00:52:47;;;;;;;7.00;5.87;;;21.60;99.90;;;;;;5105246;28;20533;-48
2021/06/28 00:55:14;;;;;;;6.40;5.40;;;21.60;99.90;;;;;;5103747;28;20473;-43
2021/06/28 00:57:43;;;;;;;6.20;5.23;;;21.60;99.90;;;;;;5095936;28;20469;-43
2021/06/28 01:00:11;;;;;;;6.33;5.67;;;21.60;99.90;;;;;;5093732;28;20437;-44
2021/06/28 01:02:38;;;;;;;7.37;6.10;;;21.60;99.90;;;;;;5093699;28;20445;-48
2021/06/28 01:05:07;;;;;;;8.30;6.33;;;21.60;99.90;;;;;;5094892;28;20502;-46
2021/06/28 01:07:34;;;;;;;7.13;4.97;;;21.50;99.90;;;;;;5094567;28;20844;-47
2021/06/28 01:10:01;;;;;;;7.33;6.23;;;21.50;99.90;;;;;;5094049;28;20457;-46
2021/06/28 01:12:28;;;;;;;6.77;5.73;;;21.50;99.90;;;;;;5094621;28;20468;-44
2021/06/28 01:14:56;;;;;;;12.87;6.03;;;21.50;99.90;;;;;;5094399;28;20477;-47
2021/06/28 01:17:23;;;;;;;7.23;5.90;;;21.40;99.90;;;;;;5094562;28;20454;-48
2021/06/28 01:19:58;;;;;;;6.07;5.23;;;21.40;99.90;;;;;;5094389;28;20507;-46
2021/06/28 01:22:26;;;;;;;6.73;5.93;;;21.40;99.90;;;;;;5095099;28;20859;-44
2021/06/28 01:24:56;;;;;;;5.90;5.30;;;21.30;99.90;;;;;;5094402;28;20496;-45
2021/06/28 01:27:24;;;;;;;6.40;5.80;;;21.30;99.90;;;;;;5094820;28;20544;-46
2021/06/28 01:29:53;;;;;;;6.70;5.27;;;21.30;99.90;;;;;;5094465;28;20442;-48
2021/06/28 01:32:21;;;;;;;7.03;5.47;;;21.30;99.90;;;;;;5094289;28;20442;-47
2021/06/28 01:34:48;;;;;;;7.50;6.23;;;21.30;99.90;;;;;;5094532;28;20480;-50
2021/06/28 01:37:21;;;;;;;8.00;5.70;;;21.30;99.90;;;;;;5094082;28;20534;-45
2021/06/28 01:39:49;;;;;;;7.37;6.20;;;21.40;99.90;;;;;;5093207;28;20528;-46
2021/06/28 01:42:17;;;;;;;6.07;5.47;;;21.30;99.90;;;;;;5094265;28;20522;-48
2021/06/28 01:44:44;;;;;;;7.33;5.40;;;21.20;99.90;;;;;;5093926;28;20910;-44
2021/06/28 01:47:11;;;;;;;6.87;5.73;;;21.20;99.90;;;;;;5094173;28;20441;-44
2021/06/28 01:49:37;;;;;;;6.77;5.83;;;21.20;99.90;;;;;;5094133;28;20441;-47
2021/06/28 01:52:06;;;;;;;8.00;6.67;;;21.20;99.90;;;;;;5094113;28;20456;-49
2021/06/28 01:54:33;;;;;;;5.70;5.13;;;21.20;99.90;;;;;;5094245;28;20561;-47
2021/06/28 01:57:02;;;;;;;6.53;5.93;;;21.20;99.90;;;;;;5094215;28;20441;-44
2021/06/28 01:59:32;;;;;;;6.90;6.20;;;21.10;99.90;;;;;;5094344;28;20455;-48
2021/06/28 02:01:59;;;;;;;8.10;6.43;;;21.10;99.90;;;;;;5093836;28;20453;-46
2021/06/28 02:04:27;;;;;;;5.90;5.40;;;21.10;99.90;;;;;;5093755;28;20445;-43
2021/06/28 02:06:55;;;;;;;7.03;5.40;;;21.10;99.90;;;;;;5094160;28;20445;-49
2021/06/28 02:09:22;;;;;;;7.10;6.40;;;21.10;99.90;;;;;;5093760;28;20453;-45
2021/06/28 02:11:50;;;;;;;5.47;4.97;;;21.00;99.90;;;;;;5094182;28;20502;-46
2021/06/28 02:14:17;;;;;;;6.73;4.97;;;21.00;99.90;;;;;;5093728;28;20473;-48
2021/06/28 02:16:46;;;;;;;7.17;5.87;;;20.90;99.90;;;;;;5094155;28;20786;-43
2021/06/28 02:19:17;;;;;;;8.27;5.30;;;20.90;99.90;;;;;;5094249;28;20602;-45
2021/06/28 02:21:45;;;;;;;5.90;5.30;;;20.90;99.90;;;;;;5094062;28;20449;-48
2021/06/28 02:24:13;;;;;;;9.23;5.50;;;20.90;99.90;;;;;;5093804;28;20446;-44
2021/06/28 02:26:46;;;;;;;9.63;6.20;;;20.80;99.90;;;;;;5200958;22;20492;-46
2021/06/28 02:29:14;;;;;;;5.73;5.00;;;20.80;99.90;;;;;;5115537;22;20493;-44
2021/06/28 02:31:41;;;;;;;7.33;5.47;;;20.80;99.90;;;;;;5114185;28;20525;-43
2021/06/28 02:34:09;;;;;;;6.60;6.00;;;20.80;99.90;;;;;;5114042;28;20456;-45
2021/06/28 02:36:38;;;;;;;6.60;5.83;;;20.80;99.90;;;;;;5114104;28;20448;-43
2021/06/28 02:39:09;;;;;;;8.50;5.93;;;20.70;99.90;;;;;;5114060;28;20772;-45
2021/06/28 02:41:37;;;;;;;12.50;6.40;;;20.70;99.90;;;;;;5114306;28;20526;-46
2021/06/28 02:44:05;;;;;;;6.53;5.70;;;20.70;99.90;;;;;;5114038;28;20931;-43
2021/06/28 02:46:32;;;;;;;14.00;6.73;;;20.70;99.90;;;;;;5114150;28;20824;-45
2021/06/28 02:48:59;;;;;;;7.33;6.63;;;20.60;99.90;;;;;;5114231;28;20440;-43
2021/06/28 02:51:27;;;;;;;6.73;5.67;;;20.60;99.90;;;;;;5117432;28;20509;-43
2021/06/28 02:53:54;;;;;;;8.83;6.27;;;20.50;99.90;;;;;;5117885;28;20916;-44
2021/06/28 02:56:21;;;;;;;19.23;6.20;;;20.50;99.90;;;;;;5117967;28;20644;-43
2021/06/28 02:58:50;;;;;;;6.77;6.07;;;20.50;99.90;;;;;;5118057;28;20533;-45
2021/06/28 03:01:18;;;;;;;5.80;5.30;;;20.50;99.90;;;;;;5117941;28;20440;-46
2021/06/28 03:03:45;;;;;;;7.73;6.93;;;20.40;99.90;;;;;;5117654;28;20448;-44
2021/06/28 03:06:12;;;;;;;8.17;6.73;;;20.50;99.90;;;;;;5118077;28;20436;-47
2021/06/28 03:08:41;;;;;;;6.47;5.67;;;20.50;99.90;;;;;;5117526;28;20497;-46
2021/06/28 03:11:08;;;;;;;6.17;5.30;;;20.40;99.90;;;;;;5117600;28;20807;-46
2021/06/28 03:13:36;;;;;;;6.57;5.90;;;20.50;99.90;;;;;;5116752;28;20444;-47
2021/06/28 03:16:04;;;;;;;6.97;4.87;;;20.50;99.90;;;;;;5117031;28;20571;-48
2021/06/28 03:18:31;;;;;;;11.17;6.03;;;20.40;99.90;;;;;;5117629;28;20950;-48
2021/06/28 03:20:58;;;;;;;6.60;5.67;;;20.40;99.90;;;;;;5117261;28;20449;-45
2021/06/28 03:23:24;;;;;;;7.00;6.23;;;20.40;99.90;;;;;;5117373;28;20505;-44
2021/06/28 03:25:52;;;;;;;7.77;7.00;;;20.40;99.90;;;;;;5117838;28;20452;-45
2021/06/28 03:28:19;;;;;;;6.13;5.43;;;20.40;99.90;;;;;;5117230;28;20537;-48
2021/06/28 03:30:49;;;;;;;6.87;6.20;;;20.40;99.90;;;;;;5117354;28;20905;-47
2021/06/28 03:33:15;;;;;;;7.70;6.70;;;20.30;99.90;;;;;;5117001;28;20513;-48
2021/06/28 03:35:42;;;;;;;7.40;6.00;;;20.40;99.90;;;;;;5117074;28;20549;-46
2021/06/28 03:38:09;;;;;;;7.10;6.40;;;20.40;99.90;;;;;;5116999;28;20445;-46
2021/06/28 03:40:36;;;;;;;14.90;6.03;;;20.40;99.90;;;;;;5116662;28;20444;-44
2021/06/28 03:43:07;;;;;;;6.07;5.47;;;20.40;99.90;;;;;;5117000;28;20453;-45
2021/06/28 03:45:34;;;;;;;6.73;6.03;;;20.40;99.90;;;;;;5116845;28;20444;-47
2021/06/28 03:48:04;;;;;;;7.80;7.00;;;20.40;99.90;;;;;;5117185;28;20448;-52
2021/06/28 03:50:31;;;;;;;6.90;6.20;;;20.40;99.90;;;;;;5116437;28;20444;-47
2021/06/28 03:52:58;;;;;;;6.60;6.00;;;20.50;99.90;;;;;;5116602;28;20445;-48
2021/06/28 03:55:25;;;;;;;7.60;6.43;;;20.50;99.90;;;;;;5116758;28;20468;-47
2021/06/28 03:57:51;;;;;;;6.80;5.80;;;20.60;99.90;;;;;;5116740;28;20456;-44
2021/06/28 04:00:22;;;;;;;7.77;6.97;;;20.50;99.90;;;;;;5116837;28;20455;-46
2021/06/28 04:02:49;;;;;;;8.17;5.40;;;20.50;99.90;;;;;;5115477;28;20464;-45
2021/06/28 04:05:18;;;;;;;7.60;6.80;;;20.50;99.90;;;;;;5116630;28;20461;-48
2021/06/28 04:07:46;;;;;;;8.40;7.00;;;20.60;99.90;;;;;;5116591;28;20445;-45
2021/06/28 04:10:15;;;;;;;7.83;6.20;;;20.60;99.90;;;;;;5116376;28;20452;-44
2021/06/28 04:12:42;;;;;;;7.23;6.50;;;20.60;99.90;;;;;;5117201;28;20498;-49
2021/06/28 04:15:11;;;;;;;6.47;5.70;;;20.60;99.90;;;;;;5116267;28;20464;-48
2021/06/28 04:17:39;;;;;;;10.23;6.57;;;20.70;99.90;;;;;;5116709;28;20448;-48
2021/06/28 04:20:08;;;;;;;7.47;5.70;;;20.70;99.90;;;;;;5116873;28;20444;-47
2021/06/28 04:22:35;;;;;;;9.47;7.70;;;20.70;99.90;;;;;;5116388;28;20464;-48
2021/06/28 04:25:02;;;;;;;6.70;6.00;;;20.70;99.90;;;;;;5116260;28;20883;-46
2021/06/28 04:27:28;;;;;;;7.40;6.50;;;20.80;99.90;;;;;;5116120;28;20449;-47
2021/06/28 04:29:55;;;;;;;8.20;7.30;;;20.80;99.90;;;;;;5116465;28;20920;-47
2021/06/28 04:32:21;;;;;;;11.63;6.60;;;20.90;99.90;;;;;;5115830;28;20444;-48
2021/06/28 04:34:49;;;;;;;8.27;6.00;;;20.90;99.90;;;;;;5115914;28;20444;-45
2021/06/28 04:37:16;;;;;;;6.00;5.50;;;21.00;99.90;;;;;;5115701;28;20482;-43
2021/06/28 04:39:44;;;;;;;8.23;5.80;;;21.10;99.90;;;;;;5115940;28;20460;-45
2021/06/28 04:42:13;;;;;;;10.10;6.03;;;21.20;99.90;;;;;;5116091;28;20505;-45
2021/06/28 04:44:40;;;;;;;6.10;5.50;;;21.20;99.90;;;;;;5115649;28;20847;-48
2021/06/28 04:47:07;;;;;;;6.70;5.07;;;21.30;99.90;;;;;;5115530;28;20432;-47
2021/06/28 04:49:33;;;;;;;8.20;7.40;;;21.30;99.90;;;;;;5115381;28;20933;-50
2021/06/28 04:52:03;;;;;;;6.77;5.57;;;21.40;99.90;;;;;;5115227;28;20518;-45
2021/06/28 04:54:30;;;;;;;8.67;6.60;;;21.50;99.90;;;;;;5115661;28;20425;-44
2021/06/28 04:56:57;;;;;;;7.93;5.97;;;21.60;99.90;;;;;;5115265;28;20672;-43
2021/06/28 04:59:23;;;;;;;9.50;6.63;;;21.70;99.90;;;;;;5115810;28;20937;-48
2021/06/28 05:01:50;;;;;;;9.07;6.57;;;21.80;99.90;;;;;;5115171;28;20928;-45
2021/06/28 05:04:17;;;;;;;10.77;6.80;;;21.80;99.90;;;;;;5115136;28;21022;-43
2021/06/28 05:06:43;;;;;;;6.57;5.97;;;21.90;99.90;;;;;;5115363;28;20750;-45
2021/06/28 05:09:11;;;;;;;7.53;5.90;;;22.00;99.90;;;;;;5115241;28;20909;-46
2021/06/28 05:11:38;;;;;;;7.40;5.50;;;22.00;99.90;;;;;;5115062;28;20444;-47
2021/06/28 05:14:05;;;;;;;9.67;6.13;;;22.20;99.90;;;;;;5115123;28;20796;-45
2021/06/28 05:16:32;;;;;;;6.80;5.80;;;22.20;99.90;;;;;;5114882;28;20514;-47
2021/06/28 05:18:59;;;;;;;7.13;6.20;;;22.30;99.90;;;;;;5115274;28;20509;-45
2021/06/28 05:21:25;;;;;;;8.13;6.03;;;22.40;99.90;;;;;;5114718;28;20452;-46
2021/06/28 05:23:52;;;;;;;6.20;5.70;;;22.50;99.90;;;;;;5115085;28;20785;-50
2021/06/28 05:26:20;;;;;;;6.27;5.57;;;22.60;99.90;;;;;;5114668;28;20505;-46
2021/06/28 05:28:47;;;;;;;8.43;6.20;;;22.60;99.90;;;;;;5114708;28;20476;-45
2021/06/28 05:31:14;;;;;;;7.20;6.50;;;22.70;99.90;;;;;;5115434;28;20778;-47
2021/06/28 05:33:40;;;;;;;10.50;6.73;;;22.70;99.90;;;;;;5114793;28;20905;-44
2021/06/28 05:36:07;;;;;;;7.43;6.30;;;22.80;99.90;;;;;;5113413;27;20478;-47
2021/06/28 05:38:34;;;;;;;7.87;6.00;;;22.80;99.90;;;;;;5101995;27;20439;-45
2021/06/28 05:41:00;;;;;;;10.10;6.27;;;22.90;99.90;;;;;;5103658;28;20745;-47
2021/06/28 05:43:28;;;;;;;9.40;6.93;;;23.00;99.90;;;;;;5106509;27;20445;-47
2021/06/28 05:45:55;;;;;;;9.23;6.67;;;23.10;99.90;;;;;;5107335;27;20433;-44
2021/06/28 05:48:22;;;;;;;9.97;7.63;;;23.20;99.90;;;;;;5104864;28;20438;-44
2021/06/28 05:50:49;;;;;;;7.93;7.13;;;23.30;99.90;;;;;;5103531;28;20458;-43
2021/06/28 05:53:16;;;;;;;8.90;5.50;;;23.40;99.90;;;;;;5106163;28;20433;-44
2021/06/28 05:55:43;;;;;;;7.73;6.27;;;23.50;99.90;;;;;;5097951;28;20804;-43
2021/06/28 05:58:12;;;;;;;7.00;5.83;;;23.50;99.90;;;;;;5104330;28;20444;-45
2021/06/28 06:00:40;;;;;;;6.13;5.53;;;23.50;99.90;;;;;;5107278;28;20433;-43
2021/06/28 06:03:06;;;;;;;6.50;5.70;;;23.50;99.90;;;;;;5105709;28;21014;-43
2021/06/28 06:05:33;;;;;;;7.27;6.03;;;23.50;99.90;;;;;;5107895;28;20823;-44
2021/06/28 06:08:00;;;;;;;7.77;5.90;;;23.50;99.90;;;;;;5106819;28;20506;-47
2021/06/28 06:10:27;;;;;;;9.40;5.43;;;23.60;99.90;;;;;;5104041;28;20521;-49
2021/06/28 06:12:54;;;;;;;7.00;5.50;;;23.60;99.90;;;;;;5100994;28;20553;-47
2021/06/28 06:15:20;;;;;;;6.03;5.53;;;23.70;99.90;;;;;;5102213;28;21068;-50
2021/06/28 06:17:48;;;;;;;8.50;6.63;;;23.70;99.90;;;;;;5102581;28;20437;-43
2021/06/28 06:20:15;;;;;;;5.77;5.27;;;23.80;99.90;;;;;;5102369;28;20501;-49
2021/06/28 06:22:42;;;;;;;9.60;5.50;;;23.80;99.90;;;;;;5104035;28;20457;-44
2021/06/28 06:25:10;;;;;;;7.03;5.27;;;23.90;99.90;;;;;;5104385;28;20433;-42
2021/06/28 06:27:36;;;;;;;6.50;5.60;;;24.00;99.90;;;;;;5107556;28;20940;-44
2021/06/28 06:30:05;;;;;;;8.43;5.10;;;24.00;99.90;;;;;;5107619;28;20446;-46
2021/06/28 06:32:32;;;;;;;6.10;5.50;;;24.00;99.90;;;;;;5106925;28;20824;-49
2021/06/28 06:35:00;;;;;;;9.23;5.60;;;24.10;99.90;;;;;;5109282;28;20441;-43
2021/06/28 06:37:27;;;;;;;8.70;6.33;;;24.20;99.90;;;;;;5110335;28;20506;-48
2021/06/28 06:39:53;;;;;;;6.70;6.00;;;24.20;99.90;;;;;;5111113;28;20498;-45
2021/06/28 06:42:20;;;;;;;6.77;6.07;;;24.30;99.90;;;;;;5108998;28;20436;-46
2021/06/28 06:44:47;;;;;;;6.70;6.03;;;24.40;99.90;;;;;;5108568;28;20940;-45
2021/06/28 06:47:13;;;;;;;7.83;6.47;;;24.40;99.90;;;;;;5110517;28;20498;-46
2021/06/28 06:49:43;;;;;;;6.27;5.43;;;24.50;99.90;;;;;;5110023;28;20436;-43
2021/06/28 06:52:11;;;;;;;6.43;5.43;;;24.60;99.90;;;;;;5108934;28;20445;-47
2021/06/28 06:54:38;;;;;;;5.93;5.40;;;24.70;99.90;;;;;;5119884;28;20440;-45
2021/06/28 06:57:06;;;;;;;8.90;7.23;;;24.80;99.90;;;;;;5117173;28;20477;-47
2021/06/28 06:59:32;;;;;;;8.50;7.60;;;24.90;99.90;;;;;;5109604;28;20511;-43
2021/06/28 07:02:00;;;;;;;7.60;6.90;;;25.00;99.90;;;;;;5110716;28;20449;-44
2021/06/28 07:04:26;;;;;;;10.67;8.10;;;25.20;99.90;;;;;;5108878;28;20441;-47
2021/06/28 07:06:53;;;;;;;8.60;7.10;;;25.40;99.90;;;;;;5097814;28;20513;-47
2021/06/28 07:09:21;;;;;;;8.50;6.93;;;25.60;99.90;;;;;;5097317;28;20461;-46
2021/06/28 07:11:48;;;;;;;8.30;7.50;;;25.80;99.90;;;;;;5110342;28;20501;-49
2021/06/28 07:14:15;;;;;;;10.00;8.30;;;25.90;99.90;;;;;;5106951;28;20438;-47
2021/06/28 07:16:42;;;;;;;9.07;8.00;;;26.10;99.90;;;;;;5100755;28;20465;-48
2021/06/28 07:19:10;;;;;;;9.73;7.50;;;26.30;99.60;;;;;;5100871;28;20446;-45
2021/06/28 07:21:37;;;;;;;7.93;7.13;;;26.90;99.50;;;;;;5106497;28;20444;-45
2021/06/28 07:24:05;;;;;;;8.33;7.27;;;28.40;96.10;;;;;;5109468;28;20442;-47
2021/06/28 07:26:34;;;;;;;12.00;8.60;;;30.30;91.20;;;;;;5106259;28;20437;-47
2021/06/28 07:29:01;;;;;;;10.80;9.13;;;32.30;81.60;;;;;;5106262;28;20475;-49
2021/06/28 07:31:28;;;;;;;12.87;9.30;;;33.90;69.00;;;;;;5106017;28;20491;-46
2021/06/28 07:33:55;;;;;;;8.20;7.50;;;35.50;61.80;;;;;;5106859;28;20433;-48
2021/06/28 07:36:22;;;;;;;14.20;12.70;;;37.20;54.70;;;;;;5104770;28;20782;-48
2021/06/28 07:38:48;;;;;;;8.93;8.10;;;38.70;50.30;;;;;;5109899;28;20443;-48
2021/06/28 07:41:16;;;;;;;10.03;9.10;;;39.80;45.30;;;;;;5113086;28;20440;-46
2021/06/28 07:43:44;;;;;;;10.87;7.50;;;40.40;43.80;;;;;;5118383;28;20840;-51
2021/06/28 07:46:11;;;;;;;7.13;6.53;;;41.10;41.90;;;;;;5105439;28;20443;-44
2021/06/28 07:48:38;;;;;;;6.60;6.00;;;41.30;39.20;;;;;;5107071;28;20494;-49
2021/06/28 07:51:05;;;;;;;7.13;6.60;;;41.50;37.40;;;;;;5108057;28;20429;-48
2021/06/28 07:53:32;;;;;;;7.60;6.90;;;41.50;38.10;;;;;;5107185;28;20458;-49
2021/06/28 07:56:13;;;;;;;7.40;6.73;;;42.00;37.40;;;;;;5106592;28;20537;-47
2021/06/28 07:58:41;;;;;;;8.20;7.43;;;42.20;36.40;;;;;;5107853;28;20784;-45
2021/06/28 08:01:11;;;;;;;6.87;6.20;;;42.10;37.00;;;;;;5106464;28;20456;-48
2021/06/28 08:03:43;;;;;;;6.83;6.23;;;42.30;35.40;;;;;;5110411;28;20463;-50
2021/06/28 08:06:10;;;;;;;6.50;6.00;;;42.40;34.80;;;;;;5096586;28;20433;-48
2021/06/28 08:08:37;;;;;;;6.00;5.50;;;42.50;34.30;;;;;;5096115;28;20469;-45
2021/06/28 08:11:04;;;;;;;6.20;5.70;;;42.30;33.50;;;;;;5096258;28;20445;-47
2021/06/28 08:13:31;;;;;;;7.27;5.73;;;42.50;34.10;;;;;;5101101;28;20515;-49
2021/06/28 08:15:57;;;;;;;8.10;6.60;;;42.70;33.20;;;;;;5113841;28;20456;-51
2021/06/28 08:18:25;;;;;;;6.57;6.07;;;42.70;34.50;;;;;;5108129;28;20488;-46
2021/06/28 08:20:52;;;;;;;5.93;5.40;;;42.90;32.60;;;;;;5114026;28;20505;-50
2021/06/28 08:23:18;;;;;;;6.63;5.50;;;42.90;32.10;;;;;;5117939;28;20836;-51
2021/06/28 08:25:45;;;;;;;5.90;5.40;;;42.90;32.20;;;;;;5114719;28;20452;-50
2021/06/28 08:28:12;;;;;;;5.80;5.40;;;42.40;32.50;;;;;;5116855;28;20484;-52
2021/06/28 08:30:39;;;;;;;6.87;5.73;;;42.30;33.00;;;;;;5108624;28;20452;-47
2021/06/28 08:33:06;;;;;;;6.07;5.57;;;42.50;32.50;;;;;;5106555;28;20437;-50
2021/06/28 08:35:34;;;;;;;6.90;5.47;;;42.40;32.40;;;;;;5109103;28;20436;-47
2021/06/28 08:38:03;;;;;;;7.20;6.60;;;42.70;32.20;;;;;;5107299;28;20533;-46
2021/06/28 08:40:30;;;;;;;6.30;5.80;;;42.60;32.70;;;;;;5105592;28;20432;-49
2021/06/28 08:42:57;;;;;;;6.60;6.10;;;42.50;32.30;;;;;;5106244;28;20456;-49
2021/06/28 08:45:25;;;;;;;6.90;6.30;;;42.30;32.30;;;;;;5108721;28;20902;-46
2021/06/28 08:47:52;;;;;;;5.70;5.30;;;42.50;32.70;;;;;;5097300;28;20786;-50
2021/06/28 08:50:19;;;;;;;6.93;6.30;;;42.70;31.50;;;;;;5105045;28;20460;-47
2021/06/28 08:52:47;;;;;;;4.80;4.50;;;43.10;30.40;;;;;;5106149;28;20445;-52
2021/06/28 08:55:14;;;;;;;5.60;5.20;;;42.80;30.50;;;;;;5106602;28;20440;-48
2021/06/28 08:57:41;;;;;;;4.80;4.40;;;42.90;30.80;;;;;;5099001;28;20484;-45
2021/06/28 09:00:09;;;;;;;6.33;5.10;;;42.90;30.50;;;;;;5112924;28;20471;-44
2021/06/28 09:02:36;;;;;;;5.40;5.00;;;42.80;31.30;;;;;;5115521;28;20468;-45
2021/06/28 09:05:05;;;;;;;5.30;4.90;;;42.60;30.10;;;;;;5109364;28;20437;-47
2021/06/28 09:07:32;;;;;;;5.03;4.63;;;41.80;31.20;;;;;;5105052;28;20456;-46
2021/06/28 09:10:00;;;;;;;5.57;5.07;;;41.10;31.50;;;;;;5110692;28;20452;-45
2021/06/28 09:12:27;;;;;;;6.07;5.47;;;40.90;32.20;;;;;;5116746;28;20760;-52
2021/06/28 09:14:58;;;;;;;6.10;5.60;;;40.80;32.50;;;;;;5107088;28;20464;-45
2021/06/28 09:17:29;;;;;;;6.87;6.20;;;40.70;32.60;;;;;;5097340;28;20498;-49
2021/06/28 09:20:16;;;;;;;7.70;5.20;;;40.90;33.30;;;;;;5095325;28;20453;-47
2021/06/28 09:22:43;;;;;;;7.57;6.07;;;41.20;32.30;;;;;;5094419;28;20441;-45
2021/06/28 09:25:30;;;;;;;6.43;5.93;;;40.90;33.70;;;;;;5094536;28;20460;-50
2021/06/28 09:27:56;;;;;;;6.03;5.60;;;41.00;32.70;;;;;;5093049;28;20578;-49
2021/06/28 09:30:24;;;;;;;7.77;5.93;;;41.00;33.20;;;;;;5094428;28;20433;-49
2021/06/28 09:32:55;;;;;;;7.00;6.20;;;41.00;32.50;;;;;;5094494;28;20461;-50
2021/06/28 09:35:31;;;;;;;10.13;5.30;;;41.10;33.20;;;;;;5097214;28;20800;-47
2021/06/28 09:37:58;;;;;;;6.10;5.63;;;41.50;32.70;;;;;;5114551;28;20505;-45
2021/06/28 09:40:27;;;;;;;5.73;5.23;;;41.40;31.70;;;;;;5105848;28;20442;-44
2021/06/28 09:42:54;;;;;;;5.63;5.13;;;41.20;31.80;;;;;;5094760;28;20457;-45
2021/06/28 09:45:21;;;;;;;6.00;5.50;;;41.40;32.20;;;;;;5115200;28;20447;-44
2021/06/28 09:47:49;;;;;;;5.83;5.23;;;41.50;32.10;;;;;;5114305;28;20552;-46
2021/06/28 09:50:18;;;;;;;5.87;5.37;;;41.70;31.70;;;;;;5103693;28;20453;-51
2021/06/28 09:52:49;;;;;;;5.90;5.30;;;42.00;31.20;;;;;;5106174;28;20469;-47
2021/06/28 09:55:20;;;;;;;5.90;5.33;;;41.80;31.00;;;;;;5105278;28;20461;-49
2021/06/28 09:58:09;;;;;;;4.63;4.13;;;41.60;31.70;;;;;;5102182;28;20464;-52
2021/06/28 10:00:38;;;;;;;6.63;5.90;;;41.40;31.40;;;;;;5103418;28;20439;-49
2021/06/28 10:03:06;;;;;;;6.33;5.80;;;41.30;31.90;;;;;;5106269;28;20510;-49
2021/06/28 10:05:36;;;;;;;6.27;5.77;;;41.10;32.20;;;;;;5094174;28;20793;-44
2021/06/28 10:08:13;;;;;;;6.73;6.13;;;40.60;32.80;;;;;;5095574;28;20763;-52
2021/06/28 10:10:40;;;;;;;5.57;5.07;;;40.40;33.40;;;;;;5102933;28;20913;-48
2021/06/28 10:13:09;;;;;;;5.43;4.90;;;40.70;32.70;;;;;;5112453;28;20452;-48
2021/06/28 10:15:38;;;;;;;5.57;5.07;;;40.70;33.30;;;;;;5110986;28;20445;-45
2021/06/28 10:18:06;;;;;;;5.37;4.87;;;40.70;33.10;;;;;;5104574;28;20543;-47
2021/06/28 10:20:37;;;;;;;4.80;4.40;;;40.80;32.60;;;;;;5112367;28;20455;-44
2021/06/28 10:23:05;;;;;;;5.17;4.67;;;40.60;32.10;;;;;;5114068;28;20448;-46
2021/06/28 10:25:32;;;;;;;4.60;4.03;;;40.20;32.30;;;;;;5114085;28;20460;-47
2021/06/28 10:28:00;;;;;;;5.37;4.90;;;39.90;32.70;;;;;;5114434;28;20486;-43
2021/06/28 10:30:29;;;;;;;6.90;3.90;;;39.40;33.40;;;;;;5113985;28;20464;-45
2021/06/28 10:33:02;;;;;;;5.60;4.53;;;39.10;33.00;;;;;;5114518;28;20828;-46
2021/06/28 10:35:32;;;;;;;4.40;4.00;;;39.10;33.20;;;;;;5114280;28;20448;-54
2021/06/28 10:38:02;;;;;;;4.97;4.20;;;39.20;33.10;;;;;;5114099;28;20575;-53
2021/06/28 10:40:29;;;;;;;5.50;5.00;;;39.10;32.40;;;;;;5114449;28;20452;-51
2021/06/28 10:42:58;;;;;;;4.00;3.70;;;38.70;33.80;;;;;;5114070;28;20452;-47
2021/06/28 10:45:40;;;;;;;3.87;3.47;;;38.60;33.80;;;;;;5114317;28;20834;-45
2021/06/28 10:48:11;;;;;;;5.23;4.77;;;38.20;33.30;;;;;;5114429;28;20822;-49
2021/06/28 10:50:52;;;;;;;4.10;3.73;;;37.60;34.40;;;;;;5114012;28;20456;-47
2021/06/28 10:53:40;;;;;;;4.10;3.80;;;37.10;34.10;;;;;;5114257;28;20447;-50
2021/06/28 10:58:55;;;;;;;4.13;3.80;;;35.90;35.40;;;;;;5113261;28;20480;-46
2021/06/28 11:01:36;;;;;;;5.20;4.37;;;35.40;36.50;;;;;;5114011;28;20425;-46
2021/06/28 11:04:08;;;;;;;5.50;4.37;;;35.00;37.10;;;;;;5114490;28;20873;-50
2021/06/28 11:06:35;;;;;;;4.97;4.57;;;34.60;37.70;;;;;;5096971;28;20469;-51
2021/06/28 11:09:07;;;;;;;5.30;4.80;;;34.20;38.40;;;;;;5111601;28;20783;-44
2021/06/28 11:11:56;;;;;;;5.97;5.40;;;33.90;38.70;;;;;;5110445;28;20441;-49
2021/06/28 11:14:38;;;;;;;5.37;4.40;;;33.60;38.30;;;;;;5095748;28;20433;-52
2021/06/28 11:17:07;;;;;;;3.80;3.50;;;33.40;39.50;;;;;;5096955;28;20461;-46
2021/06/28 11:19:51;;;;;;;3.67;3.37;;;33.10;39.40;;;;;;5097055;28;20918;-43
2021/06/28 11:22:31;;;;;;;4.60;4.07;;;33.10;40.90;;;;;;5104710;28;20685;-44
2021/06/28 11:24:59;;;;;;;4.60;4.20;;;33.10;39.90;;;;;;5110670;28;20536;-51
2021/06/28 11:27:25;;;;;;;4.40;3.97;;;32.90;39.60;;;;;;5099832;28;20437;-46
2021/06/28 11:29:53;;;;;;;4.87;4.47;;;32.90;40.10;;;;;;5076643;28;20786;-45
2021/06/28 11:32:22;;;;;;;4.13;3.83;;;32.70;42.10;;;;;;5076185;28;20454;-45
2021/06/28 11:34:49;;;;;;;5.00;4.50;;;32.50;40.00;;;;;;5094381;28;20475;-45
2021/06/28 11:37:16;;;;;;;5.80;5.20;;;32.30;40.30;;;;;;5096475;28;20469;-54
2021/06/28 11:39:56;;;;;;;5.00;4.13;;;32.20;40.90;;;;;;5096493;28;20455;-50
2021/06/28 11:42:31;;;;;;;5.37;4.17;;;32.20;40.40;;;;;;5096638;28;20821;-43
2021/06/28 11:45:00;;;;;;;8.33;4.97;;;32.20;42.60;;;;;;5096414;28;20758;-44
2021/06/28 11:48:10;;;;;;;5.37;4.87;;;32.20;40.40;;;;;;5096291;28;20437;-43
2021/06/28 11:50:40;;;;;;;4.23;3.90;;;32.30;40.30;;;;;;5096205;28;20452;-43
2021/06/28 11:53:09;;;;;;;5.90;4.97;;;32.30;40.10;;;;;;5094520;28;20442;-44
2021/06/28 11:55:39;;;;;;;9.53;8.63;;;32.40;40.10;;;;;;5094849;28;20445;-45
2021/06/28 11:58:06;;;;;;;5.97;5.40;;;32.60;40.60;;;;;;5095738;28;20500;-46
2021/06/28 12:00:33;;;;;;;4.83;4.43;;;32.70;40.60;;;;;;5095811;28;20933;-47
2021/06/28 12:03:14;;;;;;;6.10;5.50;;;32.80;40.30;;;;;;5091507;28;20449;-44
2021/06/28 12:05:43;;;;;;;5.60;5.10;;;32.90;39.60;;;;;;5082415;28;20470;-49
2021/06/28 12:08:12;;;;;;;5.03;4.40;;;33.00;40.00;;;;;;5075647;28;20504;-47
2021/06/28 12:10:39;;;;;;;4.27;3.87;;;33.10;39.90;;;;;;5075567;28;20960;-46
2021/06/28 12:13:05;;;;;;;4.70;4.30;;;33.20;39.80;;;;;;5083724;28;20458;-48
2021/06/28 12:15:32;;;;;;;4.50;4.10;;;33.40;40.90;;;;;;5095461;28;20438;-47
2021/06/28 12:18:05;;;;;;;4.60;4.20;;;33.60;40.70;;;;;;5095532;28;20828;-46
2021/06/28 12:20:35;;;;;;;4.90;4.50;;;33.70;39.70;;;;;;5096079;28;20440;-46
2021/06/28 12:23:08;;;;;;;4.83;4.10;;;33.60;39.20;;;;;;5095196;28;20794;-44
2021/06/28 12:25:35;;;;;;;5.27;4.60;;;33.60;40.20;;;;;;5095629;28;20445;-46
2021/06/28 12:28:02;;;;;;;9.43;4.53;;;33.40;39.20;;;;;;5100281;28;20978;-47
2021/06/28 12:30:30;;;;;;;4.30;4.00;;;33.20;39.10;;;;;;5115935;28;20467;-50
2021/06/28 12:32:59;;;;;;;4.30;4.00;;;33.10;39.20;;;;;;5116185;28;20505;-46
2021/06/28 12:35:27;;;;;;;4.07;3.70;;;32.90;40.00;;;;;;5116051;28;20825;-48
2021/06/28 12:37:58;;;;;;;7.10;4.10;;;32.90;39.70;;;;;;5116151;28;20477;-48
2021/06/28 12:40:31;;;;;;;5.10;4.50;;;32.70;40.10;;;;;;5109921;28;20438;-44
2021/06/28 12:43:01;;;;;;;4.30;4.00;;;32.50;40.50;;;;;;5095408;28;20819;-45
2021/06/28 12:45:31;;;;;;;6.37;4.63;;;32.50;40.70;;;;;;5095039;28;20523;-43
2021/06/28 12:47:58;;;;;;;5.73;4.50;;;32.40;40.90;;;;;;5094963;28;20434;-45
2021/06/28 12:50:27;;;;;;;7.47;6.77;;;32.50;41.90;;;;;;5094985;28;20453;-49
2021/06/28 12:52:53;;;;;;;5.40;4.90;;;32.60;40.80;;;;;;5095138;28;20502;-45
2021/06/28 12:55:22;;;;;;;4.87;4.47;;;32.70;40.30;;;;;;5094820;28;20445;-46